Flight Track Log - Related Links

Times and Time Zones

All times are in EDT time to prevent confusion due to time zone crossing. See the TSU215 flight status page for this flight to view local times or setup timezone preferences in your user account.

Time Position Orientation Groundspeed Altitude Reporting Facility
EDT Latitude Longitude Course Direction KTS MPH feet Rate Location/Type
03:30AM 38.1117 -85.7478 200° South 203 234 3,100  Level Indianapolis Center
03:31AM 38.0464 -85.7781 200° South 278 320 5,500 3,300 Climbing Indianapolis Center
03:32AM 38.0886 -85.8386 312° West 274 315 9,700 2,250 Climbing Indianapolis Center
03:33AM 38.1769 -85.8561 351° North 319 367 10,000 700 Climbing Indianapolis Center
03:34AM 38.2711 -85.8817 348° North 341 392 11,100 645 Climbing Indianapolis Center
03:35AM 38.3694 -85.8828 359° North 370 426 11,300 1,041 Climbing Indianapolis Center
03:36AM 38.4597 -85.8275 26° Northeast 359 413 13,200 2,400 Climbing Indianapolis Center
03:37AM 38.5550 -85.7794 22° Northeast 366 421 16,100 3,150 Climbing Indianapolis Center
03:38AM 38.6503 -85.7278 23° Northeast 395 455 19,500 3,300 Climbing Indianapolis Center
03:39AM 38.7572 -85.6656 24° Northeast 419 482 22,700 3,620 Climbing Indianapolis Center
03:40AM 38.8683 -85.5986 25° Northeast 436 502 26,800 3,124 Climbing Indianapolis Center
03:41AM 38.9822 -85.5372 23° Northeast 444 511 29,000 1,100 Climbing Indianapolis Center
03:42AM 39.1058 -85.4717 22° Northeast 475 547 29,000  Level Indianapolis Center
03:43AM 39.2294 -85.4022 24° Northeast 486 559 29,000  Level Indianapolis Center
03:44AM 39.3489 -85.3336 24° Northeast 478 550 29,000  Level Indianapolis Center
03:45AM 39.4636 -85.2772 21° North 451 519 29,000  Level Indianapolis Center
03:46AM 39.5986 -85.2039 23° Northeast 445 512 29,000  Level Indianapolis Center
03:47AM 39.7089 -85.1458 22° Northeast 437 503 29,000  Level Indianapolis Center
03:48AM 39.8236 -85.0853 22° Northeast 441 507 29,000  Level Indianapolis Center
03:49AM 39.9383 -85.0172 24° Northeast 451 519 29,000  Level Indianapolis Center
03:50AM 40.0544 -84.9511 24° Northeast 457 526 29,000  Level Indianapolis Center
03:51AM 40.1750 -84.8883 22° Northeast 467 537 29,000  Level Indianapolis Center
03:52AM 40.2950 -84.8214 23° Northeast 470 541 29,000  Level Indianapolis Center
03:53AM 40.4131 -84.7494 25° Northeast 471 542 29,000 -300 Level Indianapolis Center
03:54AM 40.5322 -84.6814 23° Northeast 469 540 28,400 -1,000 Descending Indianapolis Center
03:55AM 40.6442 -84.6186 23° Northeast 448 516 27,000 -694 Descending Indianapolis Center
03:56AM 40.7556 -84.5572 23° Northeast 437 503 27,000  Level Indianapolis Center
03:57AM 40.8686 -84.4908 24° Northeast 444 511 27,000  Level Indianapolis Center
03:58AM 40.9803 -84.4250 24° Northeast 441 507 27,000 -900 Level Indianapolis Center
03:59AM 41.0919 -84.3611 23° Northeast 439 505 25,200 -1,785 Descending Indianapolis Center
04:00AM 41.2014 -84.3014 22° Northeast 428 493 23,400 -2,155 Descending Indianapolis Center
04:01AM 41.2903 -84.2506 23° Northeast 425 489 21,500 -2,412 Descending Cleveland Center
04:02AM 41.3967 -84.1875 24° Northeast 419 482 19,300 -2,150 Descending Cleveland Center
04:03AM 41.5031 -84.1211 25° Northeast 419 482 17,200 -2,100 Descending Cleveland Center
04:04AM 41.6069 -84.0631 23° Northeast 408 470 15,100 -2,050 Descending Cleveland Center
04:05AM 41.7086 -84.0044 23° Northeast 402 463 13,100 -2,000 Descending Cleveland Center
04:06AM 41.8083 -83.9458 24° Northeast 397 457 11,100 -1,050 Descending Cleveland Center
04:07AM 41.9017 -83.8919 23° Northeast 382 440 11,000 -250 Descending Cleveland Center
04:08AM 41.9908 -83.8381 24° Northeast 363 418 10,600 -694 Descending Cleveland Center
04:09AM 42.0758 -83.7836 25° Northeast 346 398 9,600 -1,050 Descending Cleveland Center
04:10AM 42.1522 -83.7397 23° Northeast 314 361 8,500 -1,079 Descending Cleveland Center
04:10AM 42.1881 -83.7247 17° North 275 316 8,000 -1,000 Descending Cleveland Center
04:11AM 42.2136 -83.7008 35° Northeast 296 341 7,500 -1,500 Descending Cleveland Center
04:11AM 42.2561 -83.6719 27° Northeast 269 310 6,500 -1,400 Descending Cleveland Center
04:12AM 42.2794 -83.6536 30° Northeast 270 311 6,100 -1,279 Descending Cleveland Center
04:12AM 42.3219 -83.6303 22° Northeast 262 302 5,200 -1,435 Descending Cleveland Center
04:13AM 42.3875 -83.5883 25° Northeast 258 297 3,900 -1,091 Descending Cleveland Center
04:14AM 42.4433 -83.5236 41° Northeast 252 290 3,000 -446 Descending Cleveland Center
04:15AM 42.4947 -83.4725 36° Northeast 222 255 3,000 50 Level Cleveland Center
04:16AM 42.5531 -83.4722 360° North 209 241 3,100 -99 Climbing Cleveland Center
04:17AM 42.6069 -83.4861 349° North 188 216 2,800 -393 Descending Cleveland Center
04:18AM 42.6483 -83.5022 344° North 142 163 2,300 -694 Descending Cleveland Center
04:19AM 42.6639 -83.4606 63° Northeast 151 174 1,400 -595 Descending Cleveland Center
04:20AM 42.6647 -83.4294 88° East 144 166 1,100 -99 Descending Cleveland Center
04:22AM 42.6647 -83.4294 304° West 144 166 1,100  Level Cleveland Center

Login

Don't have an account? Register now (free) for customized features, flight alerts, and more!